sensor_id;sensor_type;location;lat;lon;timestamp;P1;durP1;ratioP1;P2;durP2;ratioP2
22935;SDS011;11633;42.716;23.312;2023-01-10T00:01:07;18.05;;;8.50;;
22935;SDS011;11633;42.716;23.312;2023-01-10T00:03:32;14.48;;;7.28;;
22935;SDS011;11633;42.716;23.312;2023-01-10T00:05:58;16.58;;;8.43;;
22935;SDS011;11633;42.716;23.312;2023-01-10T00:08:23;15.73;;;7.25;;
22935;SDS011;11633;42.716;23.312;2023-01-10T00:10:48;16.88;;;9.32;;
22935;SDS011;11633;42.716;23.312;2023-01-10T00:13:14;19.92;;;7.03;;
22935;SDS011;11633;42.716;23.312;2023-01-10T00:15:52;17.42;;;7.93;;
22935;SDS011;11633;42.716;23.312;2023-01-10T00:18:18;15.90;;;7.20;;
22935;SDS011;11633;42.716;23.312;2023-01-10T00:20:43;12.25;;;6.90;;
22935;SDS011;11633;42.716;23.312;2023-01-10T00:23:09;13.20;;;6.10;;
22935;SDS011;11633;42.716;23.312;2023-01-10T00:25:35;13.63;;;8.07;;
22935;SDS011;11633;42.716;23.312;2023-01-10T00:28:00;17.05;;;7.43;;
22935;SDS011;11633;42.716;23.312;2023-01-10T00:30:28;14.27;;;7.10;;
22935;SDS011;11633;42.716;23.312;2023-01-10T00:32:54;13.70;;;6.45;;
22935;SDS011;11633;42.716;23.312;2023-01-10T00:35:21;16.42;;;7.47;;
22935;SDS011;11633;42.716;23.312;2023-01-10T00:37:46;14.35;;;8.30;;
22935;SDS011;11633;42.716;23.312;2023-01-10T00:40:11;13.65;;;6.55;;
22935;SDS011;11633;42.716;23.312;2023-01-10T00:42:37;15.82;;;8.07;;
22935;SDS011;11633;42.716;23.312;2023-01-10T00:45:21;11.52;;;6.15;;
22935;SDS011;11633;42.716;23.312;2023-01-10T00:47:48;14.20;;;7.35;;
22935;SDS011;11633;42.716;23.312;2023-01-10T00:50:14;14.20;;;6.38;;
22935;SDS011;11633;42.716;23.312;2023-01-10T00:52:40;13.73;;;6.70;;
22935;SDS011;11633;42.716;23.312;2023-01-10T00:55:05;12.27;;;7.70;;
22935;SDS011;11633;42.716;23.312;2023-01-10T00:57:30;13.43;;;7.53;;
22935;SDS011;11633;42.716;23.312;2023-01-10T00:59:56;17.52;;;8.50;;
22935;SDS011;11633;42.716;23.312;2023-01-10T01:02:21;15.85;;;7.97;;
22935;SDS011;11633;42.716;23.312;2023-01-10T01:04:46;13.73;;;7.55;;
22935;SDS011;11633;42.716;23.312;2023-01-10T01:07:12;14.38;;;6.88;;
22935;SDS011;11633;42.716;23.312;2023-01-10T01:09:37;9.45;;;5.88;;
22935;SDS011;11633;42.716;23.312;2023-01-10T01:12:22;15.35;;;7.43;;
22935;SDS011;11633;42.716;23.312;2023-01-10T01:14:47;13.52;;;7.97;;
22935;SDS011;11633;42.716;23.312;2023-01-10T01:17:13;15.05;;;7.63;;
22935;SDS011;11633;42.716;23.312;2023-01-10T01:19:38;14.05;;;7.18;;
22935;SDS011;11633;42.716;23.312;2023-01-10T01:22:03;13.40;;;6.38;;
22935;SDS011;11633;42.716;23.312;2023-01-10T01:24:28;12.02;;;6.50;;
22935;SDS011;11633;42.716;23.312;2023-01-10T01:26:54;12.18;;;6.82;;
22935;SDS011;11633;42.716;23.312;2023-01-10T01:29:19;12.02;;;6.90;;
22935;SDS011;11633;42.716;23.312;2023-01-10T01:31:44;16.73;;;7.50;;
22935;SDS011;11633;42.716;23.312;2023-01-10T01:34:10;12.48;;;7.03;;
22935;SDS011;11633;42.716;23.312;2023-01-10T01:36:35;15.40;;;6.18;;
22935;SDS011;11633;42.716;23.312;2023-01-10T01:39:00;12.18;;;7.25;;
22935;SDS011;11633;42.716;23.312;2023-01-10T01:41:25;13.40;;;7.55;;
22935;SDS011;11633;42.716;23.312;2023-01-10T01:44:13;10.27;;;6.55;;
22935;SDS011;11633;42.716;23.312;2023-01-10T01:46:39;14.75;;;7.57;;
22935;SDS011;11633;42.716;23.312;2023-01-10T01:49:05;17.00;;;7.38;;
22935;SDS011;11633;42.716;23.312;2023-01-10T01:51:35;12.13;;;6.65;;
22935;SDS011;11633;42.716;23.312;2023-01-10T01:54:01;15.05;;;7.63;;
22935;SDS011;11633;42.716;23.312;2023-01-10T01:56:31;14.15;;;7.15;;
22935;SDS011;11633;42.716;23.312;2023-01-10T01:59:00;8.98;;;5.80;;
22935;SDS011;11633;42.716;23.312;2023-01-10T02:01:26;12.80;;;7.00;;
22935;SDS011;11633;42.716;23.312;2023-01-10T02:03:53;11.80;;;7.20;;
22935;SDS011;11633;42.716;23.312;2023-01-10T02:06:20;14.25;;;7.38;;
22935;SDS011;11633;42.716;23.312;2023-01-10T02:08:55;12.55;;;7.35;;
22935;SDS011;11633;42.716;23.312;2023-01-10T02:11:23;13.57;;;6.60;;
22935;SDS011;11633;42.716;23.312;2023-01-10T02:13:48;12.27;;;6.75;;
22935;SDS011;11633;42.716;23.312;2023-01-10T02:16:14;14.70;;;7.22;;
22935;SDS011;11633;42.716;23.312;2023-01-10T02:18:39;12.88;;;6.78;;
22935;SDS011;11633;42.716;23.312;2023-01-10T02:34:01;11.93;;;6.45;;
22935;SDS011;11633;42.716;23.312;2023-01-10T02:44:07;13.35;;;7.05;;
22935;SDS011;11633;42.716;23.312;2023-01-10T02:46:32;12.00;;;6.70;;
22935;SDS011;11633;42.716;23.312;2023-01-10T02:48:58;13.07;;;6.93;;
22935;SDS011;11633;42.716;23.312;2023-01-10T02:51:27;12.88;;;7.30;;
22935;SDS011;11633;42.716;23.312;2023-01-10T02:54:02;11.32;;;6.85;;
22935;SDS011;11633;42.716;23.312;2023-01-10T03:06:45;11.88;;;7.00;;
22935;SDS011;11633;42.716;23.312;2023-01-10T03:11:40;14.25;;;6.68;;
22935;SDS011;11633;42.716;23.312;2023-01-10T03:14:29;13.68;;;6.78;;
22935;SDS011;11633;42.716;23.312;2023-01-10T03:17:01;9.90;;;5.95;;
22935;SDS011;11633;42.716;23.312;2023-01-10T03:19:29;9.88;;;6.32;;
22935;SDS011;11633;42.716;23.312;2023-01-10T03:21:56;12.23;;;5.93;;
22935;SDS011;11633;42.716;23.312;2023-01-10T03:24:24;13.68;;;6.78;;
22935;SDS011;11633;42.716;23.312;2023-01-10T03:26:52;12.38;;;6.90;;
22935;SDS011;11633;42.716;23.312;2023-01-10T03:29:31;12.90;;;6.25;;
22935;SDS011;11633;42.716;23.312;2023-01-10T03:31:59;11.95;;;6.00;;
22935;SDS011;11633;42.716;23.312;2023-01-10T03:34:26;13.20;;;7.32;;
22935;SDS011;11633;42.716;23.312;2023-01-10T03:36:55;13.75;;;6.20;;
22935;SDS011;11633;42.716;23.312;2023-01-10T03:50:08;12.75;;;6.88;;
22935;SDS011;11633;42.716;23.312;2023-01-10T03:52:34;11.05;;;7.28;;
22935;SDS011;11633;42.716;23.312;2023-01-10T03:55:00;9.00;;;5.72;;
22935;SDS011;11633;42.716;23.312;2023-01-10T03:57:27;11.95;;;6.10;;
22935;SDS011;11633;42.716;23.312;2023-01-10T03:59:54;10.43;;;6.00;;
22935;SDS011;11633;42.716;23.312;2023-01-10T04:02:23;8.95;;;5.85;;
22935;SDS011;11633;42.716;23.312;2023-01-10T04:04:49;12.20;;;6.22;;
22935;SDS011;11633;42.716;23.312;2023-01-10T04:07:14;8.63;;;5.75;;
22935;SDS011;11633;42.716;23.312;2023-01-10T04:09:39;10.25;;;6.47;;
22935;SDS011;11633;42.716;23.312;2023-01-10T04:12:04;10.82;;;6.32;;
22935;SDS011;11633;42.716;23.312;2023-01-10T04:14:30;10.70;;;6.20;;
22935;SDS011;11633;42.716;23.312;2023-01-10T04:16:56;11.98;;;6.25;;
22935;SDS011;11633;42.716;23.312;2023-01-10T04:19:22;12.27;;;6.75;;
22935;SDS011;11633;42.716;23.312;2023-01-10T04:21:47;14.45;;;6.95;;
22935;SDS011;11633;42.716;23.312;2023-01-10T04:24:12;12.70;;;7.20;;
22935;SDS011;11633;42.716;23.312;2023-01-10T04:26:38;13.90;;;7.55;;
22935;SDS011;11633;42.716;23.312;2023-01-10T04:29:03;10.45;;;6.35;;
22935;SDS011;11633;42.716;23.312;2023-01-10T04:31:30;12.48;;;6.80;;
22935;SDS011;11633;42.716;23.312;2023-01-10T04:33:55;11.02;;;6.93;;
22935;SDS011;11633;42.716;23.312;2023-01-10T04:36:20;12.75;;;5.95;;
22935;SDS011;11633;42.716;23.312;2023-01-10T04:38:45;9.25;;;6.38;;
22935;SDS011;11633;42.716;23.312;2023-01-10T04:41:11;13.00;;;7.53;;
22935;SDS011;11633;42.716;23.312;2023-01-10T04:43:36;9.23;;;6.22;;
22935;SDS011;11633;42.716;23.312;2023-01-10T04:46:01;12.77;;;8.38;;
22935;SDS011;11633;42.716;23.312;2023-01-10T04:48:26;10.10;;;6.78;;
22935;SDS011;11633;42.716;23.312;2023-01-10T04:50:52;11.13;;;6.38;;
22935;SDS011;11633;42.716;23.312;2023-01-10T04:53:17;11.85;;;6.60;;
22935;SDS011;11633;42.716;23.312;2023-01-10T04:55:43;14.25;;;7.00;;
22935;SDS011;11633;42.716;23.312;2023-01-10T04:58:08;11.32;;;6.70;;
22935;SDS011;11633;42.716;23.312;2023-01-10T05:00:33;11.70;;;7.32;;
22935;SDS011;11633;42.716;23.312;2023-01-10T05:02:58;16.98;;;7.22;;
22935;SDS011;11633;42.716;23.312;2023-01-10T05:05:24;11.82;;;7.10;;
22935;SDS011;11633;42.716;23.312;2023-01-10T05:07:49;13.35;;;7.70;;
22935;SDS011;11633;42.716;23.312;2023-01-10T05:10:15;13.07;;;7.88;;
22935;SDS011;11633;42.716;23.312;2023-01-10T05:12:40;13.88;;;7.47;;
22935;SDS011;11633;42.716;23.312;2023-01-10T05:15:05;17.80;;;9.18;;
22935;SDS011;11633;42.716;23.312;2023-01-10T05:17:31;13.00;;;7.13;;
22935;SDS011;11633;42.716;23.312;2023-01-10T05:19:56;14.82;;;9.30;;
22935;SDS011;11633;42.716;23.312;2023-01-10T05:22:21;10.60;;;6.85;;
22935;SDS011;11633;42.716;23.312;2023-01-10T05:24:46;13.70;;;7.00;;
22935;SDS011;11633;42.716;23.312;2023-01-10T05:27:12;13.18;;;7.35;;
22935;SDS011;11633;42.716;23.312;2023-01-10T05:29:37;12.60;;;7.90;;
22935;SDS011;11633;42.716;23.312;2023-01-10T05:32:02;11.88;;;7.60;;
22935;SDS011;11633;42.716;23.312;2023-01-10T05:34:27;15.15;;;8.88;;
22935;SDS011;11633;42.716;23.312;2023-01-10T05:36:53;15.20;;;8.20;;
22935;SDS011;11633;42.716;23.312;2023-01-10T05:39:18;17.52;;;10.88;;
22935;SDS011;11633;42.716;23.312;2023-01-10T05:41:43;36.70;;;18.63;;
22935;SDS011;11633;42.716;23.312;2023-01-10T05:44:09;26.67;;;14.10;;
22935;SDS011;11633;42.716;23.312;2023-01-10T05:46:34;16.67;;;8.27;;
22935;SDS011;11633;42.716;23.312;2023-01-10T05:48:59;20.20;;;11.13;;
22935;SDS011;11633;42.716;23.312;2023-01-10T05:51:25;15.90;;;9.82;;
22935;SDS011;11633;42.716;23.312;2023-01-10T05:53:50;16.52;;;9.30;;
22935;SDS011;11633;42.716;23.312;2023-01-10T05:56:16;18.00;;;9.00;;
22935;SDS011;11633;42.716;23.312;2023-01-10T05:58:41;18.60;;;8.50;;
22935;SDS011;11633;42.716;23.312;2023-01-10T06:01:06;15.40;;;7.88;;
22935;SDS011;11633;42.716;23.312;2023-01-10T06:03:31;14.88;;;8.18;;
22935;SDS011;11633;42.716;23.312;2023-01-10T06:05:57;16.77;;;8.75;;
22935;SDS011;11633;42.716;23.312;2023-01-10T06:08:22;19.75;;;8.48;;
22935;SDS011;11633;42.716;23.312;2023-01-10T06:10:48;16.83;;;9.57;;
22935;SDS011;11633;42.716;23.312;2023-01-10T06:13:13;11.82;;;7.97;;
22935;SDS011;11633;42.716;23.312;2023-01-10T06:15:39;17.98;;;8.95;;
22935;SDS011;11633;42.716;23.312;2023-01-10T06:18:04;21.50;;;9.93;;
22935;SDS011;11633;42.716;23.312;2023-01-10T06:20:29;13.85;;;8.25;;
22935;SDS011;11633;42.716;23.312;2023-01-10T06:22:54;17.23;;;8.93;;
22935;SDS011;11633;42.716;23.312;2023-01-10T06:25:20;14.93;;;8.98;;
22935;SDS011;11633;42.716;23.312;2023-01-10T06:27:45;19.58;;;9.73;;
22935;SDS011;11633;42.716;23.312;2023-01-10T06:30:11;17.48;;;10.10;;
22935;SDS011;11633;42.716;23.312;2023-01-10T06:32:37;21.85;;;11.05;;
22935;SDS011;11633;42.716;23.312;2023-01-10T06:35:03;16.50;;;10.43;;
22935;SDS011;11633;42.716;23.312;2023-01-10T06:37:28;18.33;;;9.23;;
22935;SDS011;11633;42.716;23.312;2023-01-10T06:39:54;21.52;;;12.35;;
22935;SDS011;11633;42.716;23.312;2023-01-10T06:42:19;21.00;;;12.35;;
22935;SDS011;11633;42.716;23.312;2023-01-10T06:44:44;24.63;;;14.38;;
22935;SDS011;11633;42.716;23.312;2023-01-10T06:47:09;15.95;;;10.65;;
22935;SDS011;11633;42.716;23.312;2023-01-10T06:49:35;16.23;;;9.30;;
22935;SDS011;11633;42.716;23.312;2023-01-10T06:52:00;16.38;;;9.07;;
22935;SDS011;11633;42.716;23.312;2023-01-10T06:54:25;17.65;;;9.05;;
22935;SDS011;11633;42.716;23.312;2023-01-10T06:56:51;16.30;;;10.45;;
22935;SDS011;11633;42.716;23.312;2023-01-10T06:59:16;17.83;;;10.48;;
22935;SDS011;11633;42.716;23.312;2023-01-10T07:01:41;16.35;;;9.38;;
22935;SDS011;11633;42.716;23.312;2023-01-10T07:04:06;19.25;;;9.55;;
22935;SDS011;11633;42.716;23.312;2023-01-10T07:06:35;13.07;;;7.75;;
22935;SDS011;11633;42.716;23.312;2023-01-10T07:09:01;17.60;;;9.50;;
22935;SDS011;11633;42.716;23.312;2023-01-10T07:11:26;15.30;;;9.25;;
22935;SDS011;11633;42.716;23.312;2023-01-10T07:13:52;14.68;;;8.43;;
22935;SDS011;11633;42.716;23.312;2023-01-10T07:16:18;19.23;;;9.32;;
22935;SDS011;11633;42.716;23.312;2023-01-10T07:18:43;15.20;;;9.15;;
22935;SDS011;11633;42.716;23.312;2023-01-10T07:21:08;15.60;;;9.25;;
22935;SDS011;11633;42.716;23.312;2023-01-10T07:23:35;13.68;;;8.15;;
22935;SDS011;11633;42.716;23.312;2023-01-10T07:26:04;15.00;;;7.70;;
22935;SDS011;11633;42.716;23.312;2023-01-10T07:28:30;18.17;;;9.23;;
22935;SDS011;11633;42.716;23.312;2023-01-10T07:30:57;15.80;;;8.90;;
22935;SDS011;11633;42.716;23.312;2023-01-10T07:33:22;18.83;;;9.25;;
22935;SDS011;11633;42.716;23.312;2023-01-10T07:35:47;16.13;;;8.43;;
22935;SDS011;11633;42.716;23.312;2023-01-10T07:38:13;13.52;;;9.20;;
22935;SDS011;11633;42.716;23.312;2023-01-10T07:40:38;12.75;;;8.43;;
22935;SDS011;11633;42.716;23.312;2023-01-10T07:43:03;16.90;;;9.20;;
22935;SDS011;11633;42.716;23.312;2023-01-10T07:45:29;18.10;;;10.57;;
22935;SDS011;11633;42.716;23.312;2023-01-10T07:47:55;17.35;;;10.43;;
22935;SDS011;11633;42.716;23.312;2023-01-10T07:50:20;14.70;;;9.57;;
22935;SDS011;11633;42.716;23.312;2023-01-10T07:52:45;16.52;;;9.70;;
22935;SDS011;11633;42.716;23.312;2023-01-10T07:55:11;18.63;;;10.07;;
22935;SDS011;11633;42.716;23.312;2023-01-10T07:57:36;16.92;;;8.88;;
22935;SDS011;11633;42.716;23.312;2023-01-10T08:00:02;15.55;;;9.35;;
22935;SDS011;11633;42.716;23.312;2023-01-10T08:02:27;18.08;;;9.98;;
22935;SDS011;11633;42.716;23.312;2023-01-10T08:04:52;16.83;;;9.27;;
22935;SDS011;11633;42.716;23.312;2023-01-10T08:07:18;14.88;;;8.25;;
22935;SDS011;11633;42.716;23.312;2023-01-10T08:09:44;17.05;;;9.57;;
22935;SDS011;11633;42.716;23.312;2023-01-10T08:12:09;17.27;;;10.52;;
22935;SDS011;11633;42.716;23.312;2023-01-10T08:14:35;17.85;;;10.30;;
22935;SDS011;11633;42.716;23.312;2023-01-10T08:17:00;16.38;;;9.18;;
22935;SDS011;11633;42.716;23.312;2023-01-10T08:19:25;18.05;;;10.48;;
22935;SDS011;11633;42.716;23.312;2023-01-10T08:21:50;20.60;;;10.48;;
22935;SDS011;11633;42.716;23.312;2023-01-10T08:24:15;22.42;;;11.60;;
22935;SDS011;11633;42.716;23.312;2023-01-10T08:26:41;23.80;;;11.48;;
22935;SDS011;11633;42.716;23.312;2023-01-10T08:29:06;20.77;;;10.43;;
22935;SDS011;11633;42.716;23.312;2023-01-10T08:31:31;19.55;;;10.95;;
22935;SDS011;11633;42.716;23.312;2023-01-10T08:33:56;21.52;;;11.05;;
22935;SDS011;11633;42.716;23.312;2023-01-10T08:36:22;22.05;;;11.80;;
22935;SDS011;11633;42.716;23.312;2023-01-10T08:38:48;22.83;;;12.77;;
22935;SDS011;11633;42.716;23.312;2023-01-10T08:41:15;26.85;;;12.90;;
22935;SDS011;11633;42.716;23.312;2023-01-10T08:43:40;26.50;;;13.73;;
22935;SDS011;11633;42.716;23.312;2023-01-10T08:46:05;28.20;;;12.38;;
22935;SDS011;11633;42.716;23.312;2023-01-10T08:48:30;20.85;;;11.35;;
22935;SDS011;11633;42.716;23.312;2023-01-10T08:50:56;23.80;;;13.10;;
22935;SDS011;11633;42.716;23.312;2023-01-10T08:53:21;22.30;;;12.57;;
22935;SDS011;11633;42.716;23.312;2023-01-10T08:55:47;21.65;;;11.70;;
22935;SDS011;11633;42.716;23.312;2023-01-10T08:58:13;23.13;;;12.52;;
22935;SDS011;11633;42.716;23.312;2023-01-10T09:00:38;23.58;;;12.68;;
22935;SDS011;11633;42.716;23.312;2023-01-10T09:03:07;37.38;;;18.67;;
22935;SDS011;11633;42.716;23.312;2023-01-10T09:05:32;35.08;;;19.90;;
22935;SDS011;11633;42.716;23.312;2023-01-10T09:07:58;29.38;;;15.95;;
22935;SDS011;11633;42.716;23.312;2023-01-10T09:10:24;25.38;;;14.38;;
22935;SDS011;11633;42.716;23.312;2023-01-10T09:12:49;27.58;;;14.05;;
22935;SDS011;11633;42.716;23.312;2023-01-10T09:15:21;25.20;;;13.88;;
22935;SDS011;11633;42.716;23.312;2023-01-10T09:17:47;25.17;;;12.68;;
22935;SDS011;11633;42.716;23.312;2023-01-10T09:20:14;24.08;;;14.05;;
22935;SDS011;11633;42.716;23.312;2023-01-10T09:22:39;30.08;;;13.70;;
22935;SDS011;11633;42.716;23.312;2023-01-10T09:25:04;25.83;;;13.68;;
22935;SDS011;11633;42.716;23.312;2023-01-10T09:27:30;29.27;;;14.18;;
22935;SDS011;11633;42.716;23.312;2023-01-10T09:29:55;27.48;;;13.25;;
22935;SDS011;11633;42.716;23.312;2023-01-10T09:32:21;24.35;;;12.63;;
22935;SDS011;11633;42.716;23.312;2023-01-10T09:34:46;30.40;;;15.48;;
22935;SDS011;11633;42.716;23.312;2023-01-10T09:37:11;25.95;;;14.10;;
22935;SDS011;11633;42.716;23.312;2023-01-10T09:39:36;27.05;;;13.98;;
22935;SDS011;11633;42.716;23.312;2023-01-10T09:42:04;23.75;;;14.20;;
22935;SDS011;11633;42.716;23.312;2023-01-10T09:44:41;26.73;;;14.73;;
22935;SDS011;11633;42.716;23.312;2023-01-10T09:47:14;25.13;;;14.82;;
22935;SDS011;11633;42.716;23.312;2023-01-10T09:52:33;26.23;;;13.50;;
22935;SDS011;11633;42.716;23.312;2023-01-10T09:54:57;28.65;;;15.27;;
22935;SDS011;11633;42.716;23.312;2023-01-10T09:57:23;27.80;;;15.23;;
22935;SDS011;11633;42.716;23.312;2023-01-10T09:59:49;29.77;;;15.68;;
22935;SDS011;11633;42.716;23.312;2023-01-10T10:05:03;27.23;;;15.90;;
22935;SDS011;11633;42.716;23.312;2023-01-10T10:07:31;31.13;;;15.60;;
22935;SDS011;11633;42.716;23.312;2023-01-10T10:09:56;31.80;;;17.15;;
22935;SDS011;11633;42.716;23.312;2023-01-10T10:12:35;35.80;;;19.50;;
22935;SDS011;11633;42.716;23.312;2023-01-10T10:17:42;35.25;;;19.70;;
22935;SDS011;11633;42.716;23.312;2023-01-10T10:22:50;32.78;;;18.35;;
22935;SDS011;11633;42.716;23.312;2023-01-10T10:35:18;30.67;;;16.17;;
22935;SDS011;11633;42.716;23.312;2023-01-10T10:37:49;34.15;;;16.65;;
22935;SDS011;11633;42.716;23.312;2023-01-10T10:40:16;25.50;;;15.88;;
22935;SDS011;11633;42.716;23.312;2023-01-10T10:42:43;30.60;;;15.77;;
22935;SDS011;11633;42.716;23.312;2023-01-10T10:47:42;28.25;;;17.02;;
22935;SDS011;11633;42.716;23.312;2023-01-10T10:52:39;30.98;;;17.55;;
22935;SDS011;11633;42.716;23.312;2023-01-10T10:55:05;31.13;;;17.92;;
22935;SDS011;11633;42.716;23.312;2023-01-10T10:57:32;29.73;;;16.52;;
22935;SDS011;11633;42.716;23.312;2023-01-10T10:59:58;33.92;;;17.50;;
22935;SDS011;11633;42.716;23.312;2023-01-10T11:02:28;31.15;;;17.13;;
22935;SDS011;11633;42.716;23.312;2023-01-10T11:04:56;35.20;;;19.85;;
22935;SDS011;11633;42.716;23.312;2023-01-10T11:07:22;32.92;;;19.15;;
22935;SDS011;11633;42.716;23.312;2023-01-10T11:09:48;37.53;;;22.50;;
22935;SDS011;11633;42.716;23.312;2023-01-10T11:12:15;45.88;;;24.85;;
22935;SDS011;11633;42.716;23.312;2023-01-10T11:14:45;39.85;;;21.65;;
22935;SDS011;11633;42.716;23.312;2023-01-10T11:19:58;38.13;;;22.23;;
22935;SDS011;11633;42.716;23.312;2023-01-10T11:22:25;39.90;;;21.42;;
22935;SDS011;11633;42.716;23.312;2023-01-10T11:27:22;54.30;;;25.48;;
22935;SDS011;11633;42.716;23.312;2023-01-10T11:29:48;38.00;;;21.92;;
22935;SDS011;11633;42.716;23.312;2023-01-10T11:32:15;39.20;;;20.13;;
22935;SDS011;11633;42.716;23.312;2023-01-10T11:34:50;35.42;;;19.05;;
22935;SDS011;11633;42.716;23.312;2023-01-10T11:37:25;30.85;;;18.30;;
22935;SDS011;11633;42.716;23.312;2023-01-10T11:42:36;40.42;;;20.95;;
22935;SDS011;11633;42.716;23.312;2023-01-10T11:47:52;38.15;;;22.92;;
22935;SDS011;11633;42.716;23.312;2023-01-10T11:50:20;30.75;;;16.70;;
22935;SDS011;11633;42.716;23.312;2023-01-10T11:52:45;40.85;;;20.25;;
22935;SDS011;11633;42.716;23.312;2023-01-10T11:55:45;42.58;;;19.10;;
22935;SDS011;11633;42.716;23.312;2023-01-10T11:58:07;38.42;;;19.85;;
22935;SDS011;11633;42.716;23.312;2023-01-10T12:00:44;32.72;;;17.15;;
22935;SDS011;11633;42.716;23.312;2023-01-10T12:03:16;28.27;;;14.65;;
22935;SDS011;11633;42.716;23.312;2023-01-10T12:05:55;28.13;;;15.85;;
22935;SDS011;11633;42.716;23.312;2023-01-10T12:08:39;29.92;;;15.38;;
22935;SDS011;11633;42.716;23.312;2023-01-10T12:16:15;23.25;;;14.02;;
22935;SDS011;11633;42.716;23.312;2023-01-10T12:18:41;25.58;;;14.73;;
22935;SDS011;11633;42.716;23.312;2023-01-10T12:21:06;23.63;;;12.77;;
22935;SDS011;11633;42.716;23.312;2023-01-10T12:23:32;21.45;;;13.18;;
22935;SDS011;11633;42.716;23.312;2023-01-10T12:26:00;23.60;;;13.20;;
22935;SDS011;11633;42.716;23.312;2023-01-10T12:28:27;27.00;;;13.85;;
22935;SDS011;11633;42.716;23.312;2023-01-10T12:30:57;21.75;;;12.98;;
22935;SDS011;11633;42.716;23.312;2023-01-10T12:33:32;24.10;;;13.88;;
22935;SDS011;11633;42.716;23.312;2023-01-10T12:38:28;28.55;;;16.52;;
22935;SDS011;11633;42.716;23.312;2023-01-10T12:41:17;25.92;;;15.30;;
22935;SDS011;11633;42.716;23.312;2023-01-10T12:44:04;22.83;;;13.75;;
22935;SDS011;11633;42.716;23.312;2023-01-10T12:46:43;23.58;;;13.68;;
22935;SDS011;11633;42.716;23.312;2023-01-10T12:51:45;30.30;;;17.25;;
22935;SDS011;11633;42.716;23.312;2023-01-10T12:54:23;28.05;;;15.32;;
22935;SDS011;11633;42.716;23.312;2023-01-10T12:56:49;25.67;;;12.48;;
22935;SDS011;11633;42.716;23.312;2023-01-10T12:59:19;20.83;;;12.68;;
22935;SDS011;11633;42.716;23.312;2023-01-10T13:01:55;19.63;;;11.77;;
22935;SDS011;11633;42.716;23.312;2023-01-10T13:04:25;21.75;;;12.95;;
22935;SDS011;11633;42.716;23.312;2023-01-10T13:06:51;23.60;;;13.57;;
22935;SDS011;11633;42.716;23.312;2023-01-10T13:09:19;28.05;;;14.45;;
22935;SDS011;11633;42.716;23.312;2023-01-10T13:11:48;21.98;;;13.45;;
22935;SDS011;11633;42.716;23.312;2023-01-10T13:14:15;22.52;;;13.30;;
22935;SDS011;11633;42.716;23.312;2023-01-10T13:21:35;20.63;;;12.43;;
22935;SDS011;11633;42.716;23.312;2023-01-10T13:24:02;22.40;;;12.52;;
22935;SDS011;11633;42.716;23.312;2023-01-10T13:26:47;21.02;;;12.52;;
22935;SDS011;11633;42.716;23.312;2023-01-10T13:29:23;18.75;;;11.27;;
22935;SDS011;11633;42.716;23.312;2023-01-10T13:31:49;17.20;;;10.32;;
22935;SDS011;11633;42.716;23.312;2023-01-10T13:34:21;16.35;;;10.15;;
22935;SDS011;11633;42.716;23.312;2023-01-10T13:50:48;14.32;;;7.60;;
22935;SDS011;11633;42.716;23.312;2023-01-10T14:06:02;7.47;;;5.05;;
22935;SDS011;11633;42.716;23.312;2023-01-10T14:08:30;6.72;;;4.85;;
22935;SDS011;11633;42.716;23.312;2023-01-10T14:11:06;8.30;;;4.70;;
22935;SDS011;11633;42.716;23.312;2023-01-10T14:13:32;6.28;;;3.92;;
22935;SDS011;11633;42.716;23.312;2023-01-10T14:15:57;7.95;;;4.30;;
22935;SDS011;11633;42.716;23.312;2023-01-10T14:18:24;7.28;;;4.35;;
22935;SDS011;11633;42.716;23.312;2023-01-10T14:21:02;5.85;;;4.13;;
22935;SDS011;11633;42.716;23.312;2023-01-10T14:24:14;7.47;;;4.03;;
22935;SDS011;11633;42.716;23.312;2023-01-10T14:26:17;5.60;;;3.40;;
22935;SDS011;11633;42.716;23.312;2023-01-10T14:28:43;5.95;;;3.60;;
22935;SDS011;11633;42.716;23.312;2023-01-10T14:33:39;3.47;;;2.72;;
22935;SDS011;11633;42.716;23.312;2023-01-10T14:36:07;3.20;;;2.63;;
22935;SDS011;11633;42.716;23.312;2023-01-10T14:38:33;4.75;;;3.17;;
22935;SDS011;11633;42.716;23.312;2023-01-10T14:41:04;5.35;;;3.72;;
22935;SDS011;11633;42.716;23.312;2023-01-10T14:43:37;5.50;;;3.45;;
22935;SDS011;11633;42.716;23.312;2023-01-10T14:48:33;3.83;;;2.72;;
22935;SDS011;11633;42.716;23.312;2023-01-10T14:53:38;3.45;;;2.42;;
22935;SDS011;11633;42.716;23.312;2023-01-10T14:56:27;3.35;;;2.60;;
22935;SDS011;11633;42.716;23.312;2023-01-10T14:58:50;4.45;;;2.88;;
22935;SDS011;11633;42.716;23.312;2023-01-10T15:01:18;4.22;;;3.03;;
22935;SDS011;11633;42.716;23.312;2023-01-10T15:03:46;5.40;;;3.00;;
22935;SDS011;11633;42.716;23.312;2023-01-10T15:06:11;3.70;;;2.80;;
22935;SDS011;11633;42.716;23.312;2023-01-10T15:08:36;3.03;;;2.38;;
22935;SDS011;11633;42.716;23.312;2023-01-10T15:11:02;2.67;;;1.92;;
22935;SDS011;11633;42.716;23.312;2023-01-10T15:13:30;2.83;;;2.10;;
22935;SDS011;11633;42.716;23.312;2023-01-10T15:15:57;3.97;;;2.00;;
22935;SDS011;11633;42.716;23.312;2023-01-10T15:18:39;4.03;;;2.10;;
22935;SDS011;11633;42.716;23.312;2023-01-10T15:21:04;3.08;;;1.85;;
22935;SDS011;11633;42.716;23.312;2023-01-10T15:23:37;3.25;;;2.30;;
22935;SDS011;11633;42.716;23.312;2023-01-10T15:26:04;4.85;;;3.00;;
22935;SDS011;11633;42.716;23.312;2023-01-10T15:28:30;2.78;;;2.10;;
22935;SDS011;11633;42.716;23.312;2023-01-10T15:30:55;3.20;;;2.00;;
22935;SDS011;11633;42.716;23.312;2023-01-10T15:33:29;4.05;;;2.13;;
22935;SDS011;11633;42.716;23.312;2023-01-10T15:36:01;3.10;;;1.98;;
22935;SDS011;11633;42.716;23.312;2023-01-10T15:38:27;2.83;;;1.73;;
22935;SDS011;11633;42.716;23.312;2023-01-10T15:40:56;2.55;;;1.77;;
22935;SDS011;11633;42.716;23.312;2023-01-10T15:43:40;2.90;;;1.00;;
22935;SDS011;11633;42.716;23.312;2023-01-10T15:46:05;4.95;;;1.50;;
22935;SDS011;11633;42.716;23.312;2023-01-10T15:48:40;2.13;;;1.48;;
22935;SDS011;11633;42.716;23.312;2023-01-10T15:53:52;2.65;;;1.10;;
22935;SDS011;11633;42.716;23.312;2023-01-10T15:56:20;3.63;;;1.30;;
22935;SDS011;11633;42.716;23.312;2023-01-10T15:58:46;1.83;;;1.60;;
22935;SDS011;11633;42.716;23.312;2023-01-10T16:01:12;3.25;;;1.63;;
22935;SDS011;11633;42.716;23.312;2023-01-10T16:03:43;1.70;;;1.33;;
22935;SDS011;11633;42.716;23.312;2023-01-10T16:06:23;2.90;;;1.38;;
22935;SDS011;11633;42.716;23.312;2023-01-10T16:08:50;1.63;;;1.08;;
22935;SDS011;11633;42.716;23.312;2023-01-10T16:11:18;1.73;;;1.25;;
22935;SDS011;11633;42.716;23.312;2023-01-10T16:14:03;2.38;;;1.20;;
22935;SDS011;11633;42.716;23.312;2023-01-10T16:16:29;2.50;;;1.40;;
22935;SDS011;11633;42.716;23.312;2023-01-10T16:18:54;1.90;;;0.93;;
22935;SDS011;11633;42.716;23.312;2023-01-10T16:21:19;1.90;;;1.02;;
22935;SDS011;11633;42.716;23.312;2023-01-10T16:23:45;2.83;;;1.52;;
22935;SDS011;11633;42.716;23.312;2023-01-10T16:26:11;3.88;;;1.90;;
22935;SDS011;11633;42.716;23.312;2023-01-10T16:28:37;3.75;;;1.52;;
22935;SDS011;11633;42.716;23.312;2023-01-10T16:31:03;2.70;;;1.80;;
22935;SDS011;11633;42.716;23.312;2023-01-10T16:33:28;3.78;;;1.48;;